createdAt,value
2022-12-20T00:00:32.200Z,3.34
2022-12-20T00:03:36.112Z,3.63
2022-12-20T00:06:41.831Z,3.69
2022-12-20T00:09:45.883Z,3.44
2022-12-20T00:12:49.918Z,3.51
2022-12-20T00:16:05.610Z,3.15
2022-12-20T00:19:11.508Z,3.16
2022-12-20T00:22:16.737Z,3.21
2022-12-20T00:25:21.677Z,3.24
2022-12-20T00:28:25.540Z,3.42
2022-12-20T00:31:31.384Z,3.52
2022-12-20T00:34:35.290Z,3.41
2022-12-20T00:37:41.726Z,3.32
2022-12-20T00:40:45.768Z,2.92
2022-12-20T00:43:49.714Z,2.67
2022-12-20T00:46:53.591Z,2.85
2022-12-20T00:49:57.430Z,2.61
2022-12-20T00:53:02.786Z,2.72
2022-12-20T00:56:08.027Z,2.57
2022-12-20T00:59:11.975Z,2.64
2022-12-20T01:02:15.983Z,2.52
2022-12-20T01:05:20.160Z,2.57
2022-12-20T01:08:26.641Z,2.44
2022-12-20T01:11:32.675Z,2.45
2022-12-20T01:14:37.179Z,2.20
2022-12-20T01:17:41.008Z,2.63
2022-12-20T01:20:45.591Z,2.55
2022-12-20T01:23:51.300Z,2.40
2022-12-20T01:26:55.183Z,2.36
2022-12-20T01:29:59.026Z,2.67
2022-12-20T01:33:03.066Z,2.81
2022-12-20T01:36:09.385Z,2.71
2022-12-20T01:39:17.813Z,2.76
2022-12-20T01:42:21.622Z,2.75
2022-12-20T01:45:30.550Z,2.69
2022-12-20T01:48:34.637Z,2.75
2022-12-20T01:51:42.842Z,2.88
2022-12-20T01:54:53.519Z,2.76
2022-12-20T01:58:03.428Z,3.23
2022-12-20T02:01:08.141Z,3.03
2022-12-20T02:04:11.989Z,2.78
2022-12-20T02:07:22.102Z,2.82
2022-12-20T02:10:39.603Z,3.01
2022-12-20T02:13:51.838Z,2.82
2022-12-20T02:17:02.267Z,2.89
2022-12-20T02:20:34.312Z,2.93
2022-12-20T02:24:24.839Z,3.28
2022-12-20T02:27:53.012Z,3.11
2022-12-20T02:31:02.455Z,3.16
2022-12-20T02:34:09.062Z,3.41
2022-12-20T02:37:13.276Z,3.11
2022-12-20T02:40:19.875Z,2.65
2022-12-20T02:43:43.315Z,2.74
2022-12-20T02:46:50.635Z,3.20
2022-12-20T02:49:56.088Z,2.74
2022-12-20T02:53:01.167Z,2.89
2022-12-20T02:56:13.520Z,2.87
2022-12-20T02:59:22.962Z,2.33
2022-12-20T03:02:29.100Z,2.96
2022-12-20T03:05:36.214Z,2.74
2022-12-20T03:08:39.955Z,2.76
2022-12-20T03:11:44.216Z,2.68
2022-12-20T03:14:48.002Z,2.66
2022-12-20T03:17:53.981Z,2.82
2022-12-20T03:20:58.150Z,2.53
2022-12-20T03:24:02.501Z,2.79
2022-12-20T03:27:06.871Z,2.79
2022-12-20T03:30:11.469Z,2.91
2022-12-20T03:33:16.861Z,2.80
2022-12-20T03:36:23.859Z,2.64
2022-12-20T03:39:32.419Z,2.71
2022-12-20T03:42:37.320Z,3.15
2022-12-20T03:45:41.254Z,2.79
2022-12-20T03:48:46.683Z,3.01
2022-12-20T03:51:50.758Z,3.04
2022-12-20T03:54:54.920Z,2.87
2022-12-20T03:58:06.067Z,2.77
2022-12-20T04:01:22.497Z,2.82
2022-12-20T04:04:29.231Z,2.84
2022-12-20T04:07:33.125Z,2.82
2022-12-20T04:10:57.766Z,2.88
2022-12-20T04:14:06.452Z,2.98
2022-12-20T04:17:10.554Z,2.92
2022-12-20T04:20:21.390Z,2.99
2022-12-20T04:23:45.003Z,3.00
2022-12-20T04:26:50.080Z,2.88
2022-12-20T04:29:54.881Z,2.81
2022-12-20T04:32:59.591Z,2.90
2022-12-20T04:36:06.966Z,2.70
2022-12-20T04:39:11.899Z,2.99
2022-12-20T04:42:27.622Z,3.03
2022-12-20T04:45:33.007Z,3.22
2022-12-20T04:48:56.981Z,2.85
2022-12-20T04:52:17.907Z,2.95
2022-12-20T04:55:23.664Z,2.86
2022-12-20T04:58:27.714Z,2.94
2022-12-20T05:01:31.620Z,3.26
2022-12-20T05:04:37.799Z,3.09
2022-12-20T05:07:43.913Z,3.01
2022-12-20T05:10:48.881Z,3.00
2022-12-20T05:13:53.333Z,2.98
2022-12-20T05:16:58.401Z,3.02
2022-12-20T05:20:04.835Z,3.04
2022-12-20T05:23:34.994Z,3.12
2022-12-20T05:26:48.929Z,3.23
2022-12-20T05:29:55.238Z,3.21
2022-12-20T05:32:59.270Z,3.09
2022-12-20T05:36:03.434Z,2.87
2022-12-20T05:39:09.410Z,2.96
2022-12-20T05:42:16.809Z,2.98
2022-12-20T05:45:21.115Z,2.89
2022-12-20T05:48:30.491Z,3.01
2022-12-20T05:51:34.798Z,2.80
2022-12-20T05:55:07.247Z,3.00
2022-12-20T05:58:14.372Z,3.06
2022-12-20T06:01:27.758Z,3.04
2022-12-20T06:04:35.760Z,3.13
2022-12-20T06:07:46.871Z,3.32
2022-12-20T06:10:53.472Z,3.22
2022-12-20T06:14:00.028Z,3.26
2022-12-20T06:17:04.448Z,3.19
2022-12-20T06:20:10.451Z,3.24
2022-12-20T06:23:14.471Z,3.46
2022-12-20T06:26:27.777Z,3.88
2022-12-20T06:29:31.880Z,4.35
2022-12-20T06:32:41.814Z,4.48
2022-12-20T06:35:47.283Z,4.77
2022-12-20T06:38:51.088Z,5.11
2022-12-20T06:41:56.761Z,5.12
2022-12-20T06:45:01.698Z,4.82
2022-12-20T06:48:06.751Z,4.28
2022-12-20T06:51:12.557Z,4.32
2022-12-20T06:54:16.610Z,4.34
2022-12-20T06:57:21.880Z,3.96
2022-12-20T07:00:27.622Z,4.13
2022-12-20T07:03:31.600Z,3.80
2022-12-20T07:06:35.634Z,3.94
2022-12-20T07:09:41.631Z,3.95
2022-12-20T07:12:48.340Z,3.85
2022-12-20T07:15:59.915Z,4.01
2022-12-20T07:19:04.157Z,4.20
2022-12-20T07:22:08.027Z,4.98
2022-12-20T07:25:12.208Z,5.06
2022-12-20T07:28:17.481Z,5.86
2022-12-20T07:31:21.593Z,6.22
2022-12-20T07:34:25.558Z,6.52
2022-12-20T07:37:30.562Z,6.89
2022-12-20T07:40:34.451Z,7.09
2022-12-20T07:43:39.787Z,7.42
2022-12-20T07:46:43.716Z,7.63
2022-12-20T07:49:49.667Z,7.69
2022-12-20T07:52:53.573Z,7.92
2022-12-20T07:55:58.953Z,8.07
2022-12-20T07:59:05.954Z,8.34
2022-12-20T08:02:13.676Z,8.32
2022-12-20T08:05:18.597Z,8.49
2022-12-20T08:08:23.557Z,8.74
2022-12-20T08:11:29.428Z,8.70
2022-12-20T08:14:34.552Z,8.88
2022-12-20T08:17:41.944Z,8.81
2022-12-20T08:20:45.865Z,8.81
2022-12-20T08:23:49.749Z,9.01
2022-12-20T08:26:53.547Z,9.38
2022-12-20T08:29:58.774Z,9.53
2022-12-20T08:33:02.625Z,9.67
2022-12-20T08:36:10.698Z,9.71
2022-12-20T08:39:14.519Z,9.80
2022-12-20T08:42:18.270Z,9.84
2022-12-20T08:45:23.672Z,9.80
2022-12-20T08:48:27.956Z,9.82
2022-12-20T08:51:31.849Z,10.23
2022-12-20T08:54:35.803Z,10.33
2022-12-20T08:57:39.606Z,10.50
2022-12-20T09:00:45.033Z,10.37
2022-12-20T09:03:49.273Z,10.51
2022-12-20T09:06:53.198Z,10.75
2022-12-20T09:09:56.995Z,10.54
2022-12-20T09:13:00.851Z,10.72
2022-12-20T09:16:11.043Z,10.67
2022-12-20T09:19:18.554Z,10.60
2022-12-20T09:22:22.597Z,10.60
2022-12-20T09:25:26.685Z,10.83
2022-12-20T09:28:30.698Z,10.31
2022-12-20T09:31:37.209Z,10.44
2022-12-20T09:34:41.094Z,9.65
2022-12-20T09:37:44.837Z,10.37
2022-12-20T09:40:51.288Z,10.41
2022-12-20T09:43:56.266Z,10.43
2022-12-20T09:47:10.453Z,10.75
2022-12-20T09:50:18.057Z,10.79
2022-12-20T09:53:30.653Z,11.16
2022-12-20T09:56:38.033Z,11.26
2022-12-20T09:59:49.814Z,11.13
2022-12-20T10:03:04.218Z,11.29
2022-12-20T10:06:24.545Z,10.96
2022-12-20T10:09:49.287Z,11.14
2022-12-20T10:13:01.964Z,11.13
2022-12-20T10:16:21.298Z,10.60
2022-12-20T10:19:45.787Z,10.83
2022-12-20T10:22:54.835Z,11.01
2022-12-20T10:25:59.646Z,10.55
2022-12-20T10:29:03.716Z,11.17
2022-12-20T10:32:14.653Z,10.09
2022-12-20T10:35:27.816Z,10.52
2022-12-20T10:38:45.779Z,10.39
2022-12-20T10:41:52.305Z,10.79
2022-12-20T10:44:57.602Z,10.81
2022-12-20T10:48:02.825Z,10.97
2022-12-20T10:51:18.863Z,11.02
2022-12-20T10:54:25.852Z,10.94
2022-12-20T10:57:33.790Z,11.23
2022-12-20T11:00:37.925Z,11.48
2022-12-20T11:03:53.461Z,11.34
2022-12-20T11:07:00.146Z,10.88
2022-12-20T11:10:18.719Z,10.81
2022-12-20T11:13:26.154Z,11.18
2022-12-20T11:16:38.405Z,11.17
2022-12-20T11:20:15.732Z,11.35
2022-12-20T11:23:29.094Z,11.33
2022-12-20T11:26:52.639Z,10.95
2022-12-20T11:30:07.712Z,10.92
2022-12-20T11:33:44.507Z,10.92
2022-12-20T11:37:05.923Z,10.62
2022-12-20T11:40:27.341Z,11.09
2022-12-20T11:44:15.698Z,10.17
2022-12-20T11:47:32.789Z,9.25
2022-12-20T11:50:50.876Z,9.30
2022-12-20T11:54:01.918Z,9.69
2022-12-20T11:57:13.820Z,9.37
2022-12-20T12:00:18.834Z,8.13
2022-12-20T12:03:29.538Z,7.58
2022-12-20T12:06:37.463Z,8.13
2022-12-20T12:09:47.214Z,8.37
2022-12-20T12:12:59.664Z,8.57
2022-12-20T12:16:11.267Z,8.90
2022-12-20T12:19:16.644Z,8.81
2022-12-20T12:22:27.163Z,8.52
2022-12-20T12:25:31.201Z,8.72
2022-12-20T12:28:36.713Z,8.62
2022-12-20T12:31:46.254Z,8.55
2022-12-20T12:35:05.475Z,8.37
2022-12-20T12:38:44.154Z,8.72
2022-12-20T12:42:21.826Z,9.13
2022-12-20T12:45:29.924Z,9.03
2022-12-20T12:48:38.838Z,9.22
2022-12-20T12:51:50.877Z,9.37
2022-12-20T12:54:54.944Z,9.59
2022-12-20T12:58:00.637Z,9.52
2022-12-20T13:01:10.227Z,9.17
2022-12-20T13:04:27.453Z,8.93
2022-12-20T13:07:44.818Z,8.78
2022-12-20T13:11:03.715Z,8.80
2022-12-20T13:14:29.240Z,8.88
2022-12-20T13:17:52.853Z,8.95
2022-12-20T13:21:48.792Z,8.86
2022-12-20T13:24:57.177Z,8.81
2022-12-20T13:28:34.245Z,9.00
2022-12-20T13:31:45.446Z,8.82
2022-12-20T13:34:58.889Z,8.66
2022-12-20T13:38:07.933Z,8.88
2022-12-20T13:41:21.674Z,9.17
2022-12-20T13:44:42.901Z,8.78
2022-12-20T13:47:51.253Z,8.56
2022-12-20T13:50:58.310Z,8.52
2022-12-20T13:54:04.545Z,8.63
2022-12-20T13:57:11.209Z,8.69
2022-12-20T14:00:19.578Z,8.34
2022-12-20T14:03:26.602Z,8.38
2022-12-20T14:06:32.072Z,7.34
2022-12-20T14:09:37.477Z,7.76
2022-12-20T14:12:46.374Z,7.73
2022-12-20T14:15:50.903Z,7.56
2022-12-20T14:19:03.427Z,7.72
2022-12-20T14:22:12.451Z,7.59
2022-12-20T14:25:19.478Z,7.47
2022-12-20T14:28:31.413Z,7.28
2022-12-20T14:31:41.672Z,7.41
2022-12-20T14:34:45.727Z,7.28
2022-12-20T14:37:57.975Z,7.42
2022-12-20T14:41:02.119Z,7.57
2022-12-20T14:44:17.397Z,7.43
2022-12-20T14:47:26.432Z,7.49
2022-12-20T14:50:33.320Z,7.38
2022-12-20T14:53:40.583Z,7.46
2022-12-20T14:56:48.136Z,7.22
2022-12-20T15:00:02.054Z,7.16
2022-12-20T15:03:18.599Z,7.14
2022-12-20T15:06:42.723Z,7.04
2022-12-20T15:09:48.161Z,7.09
2022-12-20T15:12:52.034Z,6.97
2022-12-20T15:15:56.063Z,7.02
2022-12-20T15:19:01.963Z,6.97
2022-12-20T15:22:05.916Z,6.84
2022-12-20T15:25:17.827Z,6.84
2022-12-20T15:28:23.492Z,6.79
2022-12-20T15:31:33.349Z,6.85
2022-12-20T15:34:39.787Z,6.74
2022-12-20T15:37:43.599Z,6.75
2022-12-20T15:40:52.113Z,6.62
2022-12-20T15:43:58.164Z,6.52
2022-12-20T15:47:02.041Z,6.52
2022-12-20T15:50:06.817Z,6.55
2022-12-20T15:53:15.063Z,6.75
2022-12-20T15:56:22.113Z,6.78
2022-12-20T15:59:58.800Z,6.82
2022-12-20T16:02:52.264Z,6.81
2022-12-20T16:05:56.517Z,6.80
2022-12-20T16:09:00.627Z,6.81
2022-12-20T16:12:15.149Z,6.83
2022-12-20T16:15:22.845Z,6.64
2022-12-20T16:18:31.508Z,6.67
2022-12-20T16:21:45.466Z,6.75
2022-12-20T16:24:49.740Z,6.65
2022-12-20T16:27:55.277Z,6.65
2022-12-20T16:30:59.216Z,6.64
2022-12-20T16:34:04.983Z,6.59
2022-12-20T16:37:08.726Z,6.51
2022-12-20T16:40:15.820Z,6.25
2022-12-20T16:43:21.132Z,5.77
2022-12-20T16:46:27.889Z,5.95
2022-12-20T16:49:31.897Z,6.09
2022-12-20T16:52:37.968Z,6.22
2022-12-20T16:55:41.977Z,6.00
2022-12-20T16:59:17.771Z,6.13
2022-12-20T17:02:25.133Z,6.16
2022-12-20T17:05:30.943Z,6.07
2022-12-20T17:11:56.014Z,5.75
2022-12-20T17:15:01.369Z,5.64
2022-12-20T17:18:05.273Z,5.91
2022-12-20T17:21:22.744Z,6.03
2022-12-20T17:24:26.596Z,6.05
2022-12-20T17:27:30.617Z,6.06
2022-12-20T17:30:36.305Z,5.84
2022-12-20T17:33:40.188Z,5.91
2022-12-20T17:36:44.137Z,5.96
2022-12-20T17:39:47.974Z,5.89
2022-12-20T17:42:51.893Z,6.07
2022-12-20T17:45:57.173Z,6.05
2022-12-20T17:49:01.185Z,5.97
2022-12-20T17:52:05.428Z,6.12
2022-12-20T17:55:16.604Z,6.04
2022-12-20T17:58:20.456Z,5.97
2022-12-20T18:01:27.917Z,5.90
2022-12-20T18:04:32.017Z,5.91
2022-12-20T18:07:35.818Z,5.97
2022-12-20T18:10:39.547Z,5.99
2022-12-20T18:13:45.123Z,5.87
2022-12-20T18:16:50.648Z,5.84
2022-12-20T18:19:55.982Z,5.92
2022-12-20T18:22:59.803Z,5.84
2022-12-20T18:26:08.959Z,5.78
2022-12-20T18:29:13.543Z,5.75
2022-12-20T18:32:18.820Z,5.68
2022-12-20T18:35:22.764Z,5.64
2022-12-20T18:38:26.743Z,5.61
2022-12-20T18:41:32.058Z,5.71
2022-12-20T18:44:36.422Z,5.73
2022-12-20T18:47:42.102Z,5.72
2022-12-20T18:50:45.916Z,5.49
2022-12-20T18:53:51.601Z,5.63
2022-12-20T18:56:55.462Z,5.62
2022-12-20T18:59:59.653Z,5.42
2022-12-20T19:03:05.234Z,5.54
2022-12-20T19:06:10.976Z,5.54
2022-12-20T19:09:15.631Z,5.42
2022-12-20T19:12:26.231Z,5.39
2022-12-20T19:15:30.285Z,5.28
2022-12-20T19:18:36.411Z,5.02
2022-12-20T19:21:43.058Z,5.22
2022-12-20T19:24:47.084Z,5.18
2022-12-20T19:27:50.818Z,4.53
2022-12-20T19:30:56.003Z,4.78
2022-12-20T19:34:03.147Z,4.91
2022-12-20T19:37:07.149Z,4.86
2022-12-20T19:40:12.014Z,5.00
2022-12-20T19:43:15.835Z,5.05
2022-12-20T19:46:25.080Z,5.22
2022-12-20T19:49:33.555Z,5.06
2022-12-20T19:52:38.798Z,5.07
2022-12-20T19:55:43.225Z,5.08
2022-12-20T19:58:48.093Z,5.16
2022-12-20T20:01:52.006Z,5.22
2022-12-20T20:04:57.462Z,4.98
2022-12-20T20:08:01.269Z,5.02
2022-12-20T20:11:09.755Z,4.98
2022-12-20T20:14:14.903Z,5.07
2022-12-20T20:17:18.845Z,4.99
2022-12-20T20:20:24.106Z,4.96
2022-12-20T20:23:28.960Z,4.88
2022-12-20T20:26:33.170Z,5.02
2022-12-20T20:29:37.212Z,4.97
2022-12-20T20:32:42.279Z,5.00
2022-12-20T20:35:55.502Z,4.82
2022-12-20T20:38:59.368Z,4.94
2022-12-20T20:42:03.143Z,5.04
2022-12-20T20:45:07.923Z,4.82
2022-12-20T20:48:11.844Z,4.91
2022-12-20T20:51:17.413Z,5.09
2022-12-20T20:54:21.165Z,5.01
2022-12-20T20:57:25.134Z,5.02
2022-12-20T21:00:32.025Z,4.91
2022-12-20T21:03:36.786Z,4.86
2022-12-20T21:06:42.438Z,4.78
2022-12-20T21:09:46.990Z,4.81
2022-12-20T21:12:50.923Z,4.70
2022-12-20T21:15:54.846Z,4.67
2022-12-20T21:19:00.305Z,4.58
2022-12-20T21:22:05.598Z,4.82
2022-12-20T21:25:09.812Z,4.66
2022-12-20T21:28:19.356Z,4.44
2022-12-20T21:31:25.290Z,4.61
2022-12-20T21:34:29.091Z,4.38
2022-12-20T21:37:34.722Z,4.63
2022-12-20T21:40:38.634Z,4.67
2022-12-20T21:43:42.463Z,4.62
2022-12-20T21:46:46.554Z,4.51
2022-12-20T21:49:50.322Z,4.36
2022-12-20T21:52:55.597Z,4.30
2022-12-20T21:56:01.512Z,4.38
2022-12-20T21:59:05.984Z,4.38
2022-12-20T22:02:13.006Z,4.29
2022-12-20T22:05:16.946Z,4.33
2022-12-20T22:08:23.030Z,4.32
2022-12-20T22:11:27.215Z,4.31
2022-12-20T22:14:31.034Z,4.17
2022-12-20T22:17:34.852Z,4.28
2022-12-20T22:20:38.636Z,4.21
2022-12-20T22:23:44.477Z,4.22
2022-12-20T22:26:48.336Z,4.02
2022-12-20T22:29:52.135Z,4.11
2022-12-20T22:32:56.063Z,3.93
2022-12-20T22:36:01.216Z,3.88
2022-12-20T22:39:06.726Z,3.77
2022-12-20T22:42:10.438Z,3.76
2022-12-20T22:45:14.155Z,3.80
2022-12-20T22:48:17.975Z,3.72
2022-12-20T22:51:23.623Z,3.80
2022-12-20T22:54:29.012Z,3.81
2022-12-20T22:57:35.364Z,3.84
2022-12-20T23:00:39.444Z,3.73
2022-12-20T23:03:43.511Z,3.60
2022-12-20T23:06:47.489Z,3.50
2022-12-20T23:09:52.830Z,3.63
2022-12-20T23:13:13.787Z,3.64
2022-12-20T23:16:18.387Z,3.47
2022-12-20T23:19:22.178Z,3.71
2022-12-20T23:22:40.985Z,3.64
2022-12-20T23:25:46.352Z,3.63
2022-12-20T23:28:50.224Z,3.24
2022-12-20T23:31:54.188Z,3.08
2022-12-20T23:34:58.154Z,3.38
2022-12-20T23:38:02.051Z,3.12
2022-12-20T23:41:10.452Z,2.59
2022-12-20T23:44:14.304Z,3.19
2022-12-20T23:47:19.118Z,3.24
2022-12-20T23:50:23.030Z,3.42
2022-12-20T23:53:26.917Z,3.40
2022-12-20T23:56:32.286Z,3.35
2022-12-20T23:59:36.202Z,3.17
